createdAt,value
2019-05-14T02:26:51.840Z,24.87
2019-05-14T03:21:22.333Z,18.30
2019-05-14T03:44:22.559Z,21.53
2019-05-14T03:47:33.390Z,22.97
2019-05-14T03:51:15.472Z,17.07
2019-05-14T03:54:30.137Z,16.73
2019-05-14T03:57:41.786Z,20.40
2019-05-14T04:01:09.675Z,17.30
2019-05-14T04:07:56.396Z,20.83
2019-05-14T04:11:22.996Z,24.07
2019-05-14T04:15:09.681Z,19.20
2019-05-14T04:18:39.792Z,18.87
2019-05-14T04:22:39.207Z,21.87
2019-05-14T04:25:54.369Z,24.53
2019-05-14T04:29:40.116Z,25.50
2019-05-14T04:33:23.130Z,25.07
2019-05-14T04:36:35.041Z,28.43
2019-05-14T04:40:01.315Z,30.57
2019-05-14T04:43:44.278Z,33.27
2019-05-14T04:47:27.600Z,33.63
2019-05-14T04:50:41.036Z,29.47
2019-05-14T04:54:29.882Z,32.43
2019-05-14T04:58:11.288Z,43.95
2019-05-14T05:06:00.745Z,34.13
2019-05-14T05:17:39.996Z,40.13
2019-05-14T05:20:54.323Z,29.57
2019-05-14T05:23:49.479Z,33.00
2019-05-14T05:27:18.575Z,30.83
2019-05-14T05:30:48.904Z,30.23
2019-05-14T05:34:33.095Z,27.60
2019-05-14T05:38:18.395Z,35.23
2019-05-14T05:41:39.203Z,39.07
2019-05-14T05:45:28.972Z,28.53
2019-05-14T05:48:44.707Z,32.63
2019-05-14T05:56:38.593Z,32.03
2019-05-14T06:07:44.175Z,27.57
2019-05-14T06:11:28.973Z,26.87
2019-05-14T06:15:10.208Z,28.63
2019-05-14T06:18:55.044Z,36.15
2019-05-14T06:26:41.366Z,23.80
2019-05-14T06:30:08.859Z,24.60
2019-05-14T06:33:34.831Z,24.10
2019-05-14T06:37:19.115Z,26.68
2019-05-14T06:48:30.854Z,23.57
2019-05-14T06:52:10.484Z,22.37
2019-05-14T06:55:53.885Z,22.27
2019-05-14T06:59:20.235Z,22.60
2019-05-14T07:02:51.693Z,20.00
2019-05-14T07:10:35.991Z,22.27
2019-05-14T07:13:49.477Z,25.53
2019-05-14T07:16:48.330Z,22.50
2019-05-14T07:20:29.419Z,33.87
2019-05-14T07:24:01.867Z,26.70
2019-05-14T07:27:19.162Z,22.60
2019-05-14T07:30:39.856Z,23.63
2019-05-14T07:38:08.777Z,29.70
2019-05-14T07:41:50.681Z,30.90
2019-05-14T07:49:25.388Z,26.27
2019-05-14T07:53:09.017Z,27.10
2019-05-14T08:00:30.180Z,22.23
2019-05-14T08:03:45.935Z,28.33
2019-05-14T08:07:11.661Z,22.73
2019-05-14T08:14:13.086Z,20.03
2019-05-14T08:20:41.603Z,21.27
2019-05-14T08:23:22.493Z,22.00
2019-05-14T08:26:04.827Z,19.60
2019-05-14T08:32:11.173Z,20.70
2019-05-14T08:34:58.875Z,19.97
2019-05-14T08:37:41.271Z,26.50
2019-05-14T08:40:24.488Z,23.13
2019-05-14T08:45:52.109Z,20.30
2019-05-14T08:48:38.809Z,20.63
2019-05-14T08:51:20.449Z,19.87
2019-05-14T08:54:04.003Z,21.40
2019-05-14T08:56:44.917Z,23.13
2019-05-14T08:59:29.560Z,26.27
2019-05-14T09:02:22.218Z,22.57
2019-05-14T09:05:28.550Z,20.67
2019-05-14T09:08:13.028Z,19.40
2019-05-14T09:11:10.003Z,19.50
2019-05-14T09:13:52.186Z,24.43
2019-05-14T09:16:46.163Z,23.10
2019-05-14T09:22:21.690Z,28.90
2019-05-14T09:25:00.447Z,24.00
2019-05-14T09:27:43.210Z,23.93
2019-05-14T09:30:22.762Z,25.07
2019-05-14T09:33:02.826Z,22.77
2019-05-14T09:35:45.937Z,26.73
2019-05-14T09:38:25.836Z,26.57
2019-05-14T09:44:12.024Z,28.57
2019-05-14T09:46:59.124Z,20.53
2019-05-14T09:49:38.770Z,22.93
2019-05-14T09:58:19.902Z,28.57
2019-05-14T10:01:01.701Z,25.70
2019-05-14T10:03:46.132Z,29.33
2019-05-14T10:06:30.550Z,22.50
2019-05-14T10:09:11.883Z,18.77
2019-05-14T10:14:59.694Z,23.57
2019-05-14T10:17:42.053Z,23.93
2019-05-14T10:20:36.518Z,24.43
2019-05-14T10:23:09.262Z,25.77
2019-05-14T10:28:54.148Z,22.43
2019-05-14T10:31:39.571Z,25.00
2019-05-14T10:34:19.657Z,22.90
2019-05-14T10:37:08.578Z,22.30
2019-05-14T10:39:53.464Z,21.60
2019-05-14T10:42:40.418Z,22.10
2019-05-14T10:48:22.198Z,21.40
2019-05-14T10:51:03.717Z,23.27
2019-05-14T10:53:48.808Z,25.23
2019-05-14T10:59:43.775Z,21.30
2019-05-14T11:02:29.010Z,25.88
2019-05-14T11:05:12.415Z,24.03
2019-05-14T11:07:59.707Z,24.83
2019-05-14T11:10:42.770Z,24.13
2019-05-14T11:13:29.292Z,26.90
2019-05-14T11:16:11.157Z,24.73
2019-05-14T11:18:57.136Z,18.60
2019-05-14T11:21:39.394Z,21.37
2019-05-14T11:24:22.684Z,26.90
2019-05-14T11:27:08.010Z,27.07
2019-05-14T11:29:52.143Z,71.53
2019-05-14T11:32:34.454Z,120.02
2019-05-14T11:35:14.750Z,91.23
2019-05-14T11:37:58.861Z,58.33
2019-05-14T11:40:42.593Z,48.97
2019-05-14T11:43:23.258Z,37.27
2019-05-14T11:46:10.193Z,32.13
2019-05-14T11:52:07.883Z,33.90
2019-05-14T11:57:59.471Z,29.37
2019-05-14T12:00:40.876Z,75.80
2019-05-14T12:03:28.654Z,122.37
2019-05-14T12:06:14.779Z,98.43
2019-05-14T12:17:13.903Z,39.40
2019-05-14T12:19:59.391Z,38.43
2019-05-14T12:23:09.376Z,30.00
2019-05-14T12:25:49.796Z,29.40
2019-05-14T12:28:31.106Z,24.77
2019-05-14T12:31:22.543Z,28.80
2019-05-14T12:34:09.790Z,40.35
2019-05-14T12:36:58.245Z,36.47
2019-05-14T12:39:44.622Z,32.60
2019-05-14T12:42:29.456Z,30.43
2019-05-14T12:45:14.437Z,25.97
2019-05-14T12:48:09.233Z,26.10
2019-05-14T12:50:49.187Z,23.30
2019-05-14T12:53:39.743Z,23.83
2019-05-14T12:56:33.652Z,23.87
2019-05-14T13:02:44.053Z,23.00
2019-05-14T13:08:34.049Z,20.43
2019-05-14T13:11:24.846Z,18.97
2019-05-14T13:14:11.446Z,22.27
2019-05-14T13:16:55.699Z,20.13
2019-05-14T13:19:48.547Z,17.80
2019-05-14T13:22:42.526Z,19.23
2019-05-14T13:25:19.151Z,20.93
2019-05-14T13:28:14.810Z,18.47
2019-05-14T13:31:09.651Z,21.17
2019-05-14T13:33:54.361Z,20.97
2019-05-14T13:36:44.934Z,18.47
2019-05-14T13:45:58.733Z,16.33
2019-05-14T13:48:43.883Z,16.17
2019-05-14T13:51:38.776Z,15.33
2019-05-14T13:54:24.053Z,15.80
2019-05-14T13:57:24.737Z,15.50
2019-05-14T14:00:12.110Z,16.63
2019-05-14T14:03:00.805Z,16.13
2019-05-14T14:05:49.811Z,18.30
2019-05-14T14:08:42.249Z,16.13
2019-05-14T14:14:50.030Z,18.00
2019-05-14T14:20:48.804Z,20.53
2019-05-14T14:23:39.186Z,17.57
2019-05-14T14:26:31.569Z,17.07
2019-05-14T14:29:18.854Z,16.07
2019-05-14T14:32:11.122Z,19.23
2019-05-14T14:41:05.768Z,17.87
2019-05-14T14:47:00.300Z,21.47
2019-05-14T14:50:03.536Z,21.00
2019-05-14T14:52:53.658Z,23.25
2019-05-14T14:55:40.187Z,21.40
2019-05-14T14:58:34.565Z,68.37
2019-05-14T15:04:32.978Z,55.12
2019-05-14T15:07:18.140Z,36.47
2019-05-14T15:10:04.845Z,24.47
2019-05-14T15:16:13.612Z,23.10
2019-05-14T15:22:13.238Z,25.73
2019-05-14T15:28:04.594Z,20.43
2019-05-14T15:30:55.883Z,38.30
2019-05-14T15:37:12.617Z,109.55
2019-05-14T15:40:16.022Z,36.43
2019-05-14T15:46:27.088Z,21.50
2019-05-14T15:49:32.124Z,19.57
2019-05-14T15:52:13.349Z,122.17
2019-05-14T15:58:13.185Z,42.63
2019-05-14T16:01:11.038Z,25.53
2019-05-14T16:04:22.922Z,20.87
2019-05-14T16:07:09.554Z,26.55
2019-05-14T16:10:00.952Z,21.43
2019-05-14T16:12:44.066Z,18.93
2019-05-14T16:15:28.315Z,20.90
2019-05-14T16:18:22.430Z,23.27
2019-05-14T16:21:22.195Z,21.80
2019-05-14T16:24:05.225Z,24.43
2019-05-14T16:26:45.026Z,22.53
2019-05-14T16:29:45.604Z,26.80
2019-05-14T16:32:22.728Z,22.57
2019-05-14T16:38:28.505Z,24.63
2019-05-14T16:44:13.546Z,23.13
2019-05-14T16:46:54.632Z,21.53
2019-05-14T16:49:36.694Z,23.17
2019-05-14T16:52:28.650Z,23.23
2019-05-14T17:01:18.974Z,26.45
2019-05-14T17:03:59.547Z,27.67
2019-05-14T17:06:38.995Z,22.02
2019-05-14T17:09:18.769Z,24.40
2019-05-14T17:11:58.994Z,25.77
2019-05-14T17:17:42.023Z,25.07
2019-05-14T17:20:24.227Z,26.77
2019-05-14T17:23:19.111Z,25.23
2019-05-14T17:26:03.038Z,25.77
2019-05-14T17:28:43.997Z,27.33
2019-05-14T17:31:26.032Z,30.03
2019-05-14T17:34:09.162Z,26.77
2019-05-14T17:36:52.667Z,26.77
2019-05-14T17:39:33.626Z,31.02
2019-05-14T17:42:13.760Z,26.57
2019-05-14T17:44:58.913Z,27.93
2019-05-14T17:47:40.057Z,28.10
2019-05-14T17:50:20.854Z,26.57
2019-05-14T17:53:03.941Z,27.17
2019-05-14T17:55:50.872Z,29.60
2019-05-14T17:58:34.708Z,29.17
2019-05-14T18:01:18.409Z,31.60
2019-05-14T18:03:59.624Z,30.52
2019-05-14T18:06:41.774Z,30.50
2019-05-14T18:09:22.486Z,33.13
2019-05-14T18:12:03.855Z,40.78
2019-05-14T18:14:48.087Z,35.23
2019-05-14T18:17:32.356Z,35.87
2019-05-14T18:20:12.543Z,33.70
2019-05-14T18:22:53.447Z,39.17
2019-05-14T18:25:33.287Z,38.50
2019-05-14T18:28:14.537Z,38.50
2019-05-14T18:30:58.759Z,47.37
2019-05-14T18:33:40.213Z,36.90
2019-05-14T18:36:22.623Z,43.70
2019-05-14T18:39:05.218Z,42.10
2019-05-14T18:41:49.864Z,37.53
2019-05-14T18:44:33.909Z,42.88
2019-05-14T18:47:12.773Z,35.83
2019-05-14T18:49:54.593Z,34.03
2019-05-14T18:52:39.477Z,34.17
2019-05-14T18:55:18.663Z,35.57
2019-05-14T18:57:59.402Z,34.03
2019-05-14T19:00:42.000Z,37.70
2019-05-14T19:03:28.570Z,37.73
2019-05-14T19:06:13.137Z,39.30
2019-05-14T19:08:53.530Z,46.02
2019-05-14T19:11:38.771Z,42.03
2019-05-14T19:14:23.500Z,41.10
2019-05-14T19:17:05.679Z,42.10
2019-05-14T19:19:48.074Z,39.13
2019-05-14T19:22:35.842Z,39.97
2019-05-14T19:25:18.241Z,39.60
2019-05-14T19:28:00.832Z,39.77
2019-05-14T19:30:43.830Z,41.07
2019-05-14T19:33:25.998Z,39.50
2019-05-14T19:36:10.116Z,40.70
2019-05-14T19:38:53.834Z,41.50
2019-05-14T19:41:38.922Z,37.73
2019-05-14T19:44:19.108Z,43.47
2019-05-14T19:47:04.054Z,45.10
2019-05-14T19:49:44.329Z,48.10
2019-05-14T19:52:28.104Z,44.87
2019-05-14T19:55:11.019Z,43.40
2019-05-14T19:57:55.014Z,45.63
2019-05-14T20:00:38.036Z,45.70
2019-05-14T20:03:19.411Z,44.83
2019-05-14T20:05:58.375Z,43.07
2019-05-14T20:08:42.924Z,41.30
2019-05-14T20:11:28.744Z,49.23
2019-05-14T20:14:07.149Z,42.37
2019-05-14T20:16:50.312Z,42.80
2019-05-14T20:19:29.360Z,46.73
2019-05-14T20:22:09.487Z,50.67
2019-05-14T20:24:50.309Z,42.63
2019-05-14T20:27:35.152Z,48.13
2019-05-14T20:30:13.832Z,44.57
2019-05-14T20:32:55.088Z,50.87
2019-05-14T20:35:35.033Z,45.50
2019-05-14T20:38:19.276Z,47.13
2019-05-14T20:41:02.694Z,45.90
2019-05-14T20:43:48.028Z,43.83
2019-05-14T20:46:31.332Z,45.53
2019-05-14T20:49:14.104Z,49.77
2019-05-14T20:51:56.006Z,44.63
2019-05-14T20:54:39.882Z,42.47
2019-05-14T20:57:26.886Z,53.92
2019-05-14T21:00:06.941Z,48.20
2019-05-14T21:02:46.675Z,49.50
2019-05-14T21:05:28.430Z,56.83
2019-05-14T21:08:13.575Z,52.53
2019-05-14T21:10:58.752Z,55.93
2019-05-14T21:13:40.006Z,52.13
2019-05-14T21:16:22.996Z,45.43
2019-05-14T21:19:05.319Z,49.03
2019-05-14T21:21:49.155Z,48.27
2019-05-14T21:24:33.644Z,52.73
2019-05-14T21:27:15.688Z,56.23
2019-05-14T21:29:58.142Z,60.70
2019-05-14T21:32:41.990Z,60.30
2019-05-14T21:35:21.304Z,56.10
2019-05-14T21:38:04.173Z,61.77
2019-05-14T21:40:46.060Z,56.33
2019-05-14T21:43:28.954Z,58.23
2019-05-14T21:46:10.475Z,59.57
2019-05-14T21:48:52.895Z,53.53
2019-05-14T21:51:34.555Z,60.20
2019-05-14T21:54:13.692Z,57.83
2019-05-14T21:56:58.696Z,69.07
2019-05-14T21:59:43.007Z,52.97
2019-05-14T22:02:28.259Z,60.17
2019-05-14T22:05:10.838Z,58.37
2019-05-14T22:07:54.357Z,56.17
2019-05-14T22:10:34.282Z,54.00
2019-05-14T22:13:24.782Z,55.03
2019-05-14T22:16:04.047Z,52.57
2019-05-14T22:18:48.388Z,49.67
2019-05-14T22:21:31.718Z,54.40
2019-05-14T22:24:14.842Z,52.07
2019-05-14T22:26:58.026Z,50.77
2019-05-14T22:29:39.808Z,62.50
2019-05-14T22:32:21.099Z,58.87
2019-05-14T22:35:08.547Z,59.80
2019-05-14T22:37:54.189Z,65.85
2019-05-14T22:40:34.947Z,60.47
2019-05-14T22:43:21.845Z,58.47
2019-05-14T22:46:02.725Z,58.70
2019-05-14T22:48:51.322Z,53.97
2019-05-14T22:51:33.239Z,58.90
2019-05-14T22:54:13.415Z,56.67
2019-05-14T22:56:55.021Z,55.33
2019-05-14T22:59:39.345Z,59.70
2019-05-14T23:02:20.165Z,55.53
2019-05-14T23:05:04.904Z,55.73
2019-05-14T23:07:48.546Z,52.97
2019-05-14T23:10:38.632Z,58.10
2019-05-14T23:13:31.304Z,56.80
2019-05-14T23:16:11.639Z,60.67
2019-05-14T23:18:55.009Z,61.17
2019-05-14T23:21:41.587Z,56.63
2019-05-14T23:24:28.457Z,59.13
2019-05-14T23:27:10.563Z,57.13
2019-05-14T23:29:49.610Z,58.23
2019-05-14T23:32:31.965Z,57.93
2019-05-14T23:38:08.703Z,65.00
2019-05-14T23:43:51.548Z,55.63
2019-05-14T23:46:36.779Z,60.28
2019-05-14T23:49:18.369Z,57.43
2019-05-14T23:52:01.140Z,61.77
2019-05-14T23:54:42.244Z,55.43
